sensor_id;sensor_type;location;lat;lon;timestamp;temperature;humidity
80426;DHT22;69766;51.476;5.704;2023-12-22T00:00:48;5.80;99.90
80426;DHT22;69766;51.476;5.704;2023-12-22T00:03:14;5.70;99.90
80426;DHT22;69766;51.476;5.704;2023-12-22T00:05:41;5.80;99.90
80426;DHT22;69766;51.476;5.704;2023-12-22T00:08:09;5.80;99.90
80426;DHT22;69766;51.476;5.704;2023-12-22T00:10:34;5.70;99.90
80426;DHT22;69766;51.476;5.704;2023-12-22T00:13:00;5.80;99.90
80426;DHT22;69766;51.476;5.704;2023-12-22T00:15:26;5.80;99.90
80426;DHT22;69766;51.476;5.704;2023-12-22T00:17:55;5.80;99.90
80426;DHT22;69766;51.476;5.704;2023-12-22T00:20:20;5.90;99.90
80426;DHT22;69766;51.476;5.704;2023-12-22T00:22:46;5.90;99.90
80426;DHT22;69766;51.476;5.704;2023-12-22T00:25:15;5.90;99.90
80426;DHT22;69766;51.476;5.704;2023-12-22T00:27:40;5.80;99.90
80426;DHT22;69766;51.476;5.704;2023-12-22T00:30:06;5.80;99.90
80426;DHT22;69766;51.476;5.704;2023-12-22T00:32:32;5.90;99.90
80426;DHT22;69766;51.476;5.704;2023-12-22T00:34:58;5.90;99.90
80426;DHT22;69766;51.476;5.704;2023-12-22T00:37:24;6.00;99.90
80426;DHT22;69766;51.476;5.704;2023-12-22T00:39:49;6.00;99.90
80426;DHT22;69766;51.476;5.704;2023-12-22T00:42:15;5.90;99.90
80426;DHT22;69766;51.476;5.704;2023-12-22T00:44:41;5.90;99.90
80426;DHT22;69766;51.476;5.704;2023-12-22T00:47:06;5.90;99.90
80426;DHT22;69766;51.476;5.704;2023-12-22T00:49:32;5.90;99.90
80426;DHT22;69766;51.476;5.704;2023-12-22T00:51:58;5.80;99.90
80426;DHT22;69766;51.476;5.704;2023-12-22T00:54:24;5.90;99.90
80426;DHT22;69766;51.476;5.704;2023-12-22T00:56:50;5.80;99.90
80426;DHT22;69766;51.476;5.704;2023-12-22T00:59:16;5.80;99.90
80426;DHT22;69766;51.476;5.704;2023-12-22T01:01:41;5.80;99.90
80426;DHT22;69766;51.476;5.704;2023-12-22T01:04:07;5.80;99.90
80426;DHT22;69766;51.476;5.704;2023-12-22T01:06:37;5.80;99.90
80426;DHT22;69766;51.476;5.704;2023-12-22T01:09:03;5.70;99.90
80426;DHT22;69766;51.476;5.704;2023-12-22T01:11:28;5.70;99.90
80426;DHT22;69766;51.476;5.704;2023-12-22T01:13:54;5.60;99.90
80426;DHT22;69766;51.476;5.704;2023-12-22T01:16:20;5.70;99.90
80426;DHT22;69766;51.476;5.704;2023-12-22T01:18:47;5.60;99.90
80426;DHT22;69766;51.476;5.704;2023-12-22T01:21:13;5.50;99.90
80426;DHT22;69766;51.476;5.704;2023-12-22T01:23:39;5.30;99.90
80426;DHT22;69766;51.476;5.704;2023-12-22T01:26:04;5.30;99.90
80426;DHT22;69766;51.476;5.704;2023-12-22T01:28:30;5.40;99.90
80426;DHT22;69766;51.476;5.704;2023-12-22T01:30:58;5.40;99.90
80426;DHT22;69766;51.476;5.704;2023-12-22T01:33:24;5.50;99.90
80426;DHT22;69766;51.476;5.704;2023-12-22T01:35:49;5.90;99.90
80426;DHT22;69766;51.476;5.704;2023-12-22T01:38:15;6.10;99.90
80426;DHT22;69766;51.476;5.704;2023-12-22T01:40:44;6.10;99.90
80426;DHT22;69766;51.476;5.704;2023-12-22T01:43:10;6.20;99.90
80426;DHT22;69766;51.476;5.704;2023-12-22T01:45:35;6.10;99.90
80426;DHT22;69766;51.476;5.704;2023-12-22T01:48:04;6.10;99.90
80426;DHT22;69766;51.476;5.704;2023-12-22T01:50:30;6.00;99.90
80426;DHT22;69766;51.476;5.704;2023-12-22T01:52:56;6.00;99.90
80426;DHT22;69766;51.476;5.704;2023-12-22T01:55:22;5.90;99.90
80426;DHT22;69766;51.476;5.704;2023-12-22T01:57:49;5.80;99.90
80426;DHT22;69766;51.476;5.704;2023-12-22T02:00:15;5.80;99.90
80426;DHT22;69766;51.476;5.704;2023-12-22T02:02:42;5.70;99.90
80426;DHT22;69766;51.476;5.704;2023-12-22T02:05:10;5.80;99.90
80426;DHT22;69766;51.476;5.704;2023-12-22T02:07:41;6.00;99.90
80426;DHT22;69766;51.476;5.704;2023-12-22T02:10:08;6.00;99.90
80426;DHT22;69766;51.476;5.704;2023-12-22T02:12:35;6.10;99.90
80426;DHT22;69766;51.476;5.704;2023-12-22T02:15:01;6.00;99.90
80426;DHT22;69766;51.476;5.704;2023-12-22T02:17:36;6.20;99.90
80426;DHT22;69766;51.476;5.704;2023-12-22T02:20:04;6.30;99.90
80426;DHT22;69766;51.476;5.704;2023-12-22T02:22:32;6.30;99.90
80426;DHT22;69766;51.476;5.704;2023-12-22T02:24:58;6.40;99.90
80426;DHT22;69766;51.476;5.704;2023-12-22T02:27:46;6.50;99.90
80426;DHT22;69766;51.476;5.704;2023-12-22T02:33:03;6.60;99.90
80426;DHT22;69766;51.476;5.704;2023-12-22T02:35:32;6.60;99.90
80426;DHT22;69766;51.476;5.704;2023-12-22T02:38:00;6.60;99.90
80426;DHT22;69766;51.476;5.704;2023-12-22T02:40:27;6.50;99.90
80426;DHT22;69766;51.476;5.704;2023-12-22T02:42:56;6.50;99.90
80426;DHT22;69766;51.476;5.704;2023-12-22T02:45:22;6.50;99.90
80426;DHT22;69766;51.476;5.704;2023-12-22T02:47:48;6.60;99.90
80426;DHT22;69766;51.476;5.704;2023-12-22T02:50:15;6.80;99.90
80426;DHT22;69766;51.476;5.704;2023-12-22T02:52:41;6.90;99.90
80426;DHT22;69766;51.476;5.704;2023-12-22T02:55:07;6.90;99.90
80426;DHT22;69766;51.476;5.704;2023-12-22T02:57:33;7.00;99.90
80426;DHT22;69766;51.476;5.704;2023-12-22T03:00:02;6.90;99.90
80426;DHT22;69766;51.476;5.704;2023-12-22T03:02:30;7.00;99.90
80426;DHT22;69766;51.476;5.704;2023-12-22T03:04:56;7.10;99.90
80426;DHT22;69766;51.476;5.704;2023-12-22T03:07:24;7.10;99.90
80426;DHT22;69766;51.476;5.704;2023-12-22T03:09:50;7.00;99.90
80426;DHT22;69766;51.476;5.704;2023-12-22T03:12:15;6.90;99.90
80426;DHT22;69766;51.476;5.704;2023-12-22T03:14:41;6.70;99.90
80426;DHT22;69766;51.476;5.704;2023-12-22T03:17:10;6.60;99.90
80426;DHT22;69766;51.476;5.704;2023-12-22T03:19:39;6.60;99.90
80426;DHT22;69766;51.476;5.704;2023-12-22T03:22:05;6.50;99.90
80426;DHT22;69766;51.476;5.704;2023-12-22T03:24:30;6.40;99.90
80426;DHT22;69766;51.476;5.704;2023-12-22T03:26:56;6.40;99.90
80426;DHT22;69766;51.476;5.704;2023-12-22T03:29:22;6.40;99.90
80426;DHT22;69766;51.476;5.704;2023-12-22T03:31:48;6.40;99.90
80426;DHT22;69766;51.476;5.704;2023-12-22T03:34:14;6.30;99.90
80426;DHT22;69766;51.476;5.704;2023-12-22T03:36:39;6.30;99.90
80426;DHT22;69766;51.476;5.704;2023-12-22T03:39:05;6.30;99.90
80426;DHT22;69766;51.476;5.704;2023-12-22T03:41:31;6.20;99.90
80426;DHT22;69766;51.476;5.704;2023-12-22T03:44:03;6.20;99.90
80426;DHT22;69766;51.476;5.704;2023-12-22T03:46:31;6.30;99.90
80426;DHT22;69766;51.476;5.704;2023-12-22T03:48:56;6.40;99.90
80426;DHT22;69766;51.476;5.704;2023-12-22T03:51:22;6.50;99.90
80426;DHT22;69766;51.476;5.704;2023-12-22T03:53:49;6.50;99.90
80426;DHT22;69766;51.476;5.704;2023-12-22T03:56:17;6.50;99.90
80426;DHT22;69766;51.476;5.704;2023-12-22T03:58:44;6.60;99.90
80426;DHT22;69766;51.476;5.704;2023-12-22T04:01:14;6.80;99.90
80426;DHT22;69766;51.476;5.704;2023-12-22T04:03:40;6.70;99.90
80426;DHT22;69766;51.476;5.704;2023-12-22T04:06:05;6.80;99.90
80426;DHT22;69766;51.476;5.704;2023-12-22T04:08:31;6.70;99.90
80426;DHT22;69766;51.476;5.704;2023-12-22T04:10:57;6.70;99.90
80426;DHT22;69766;51.476;5.704;2023-12-22T04:13:23;6.70;99.90
80426;DHT22;69766;51.476;5.704;2023-12-22T04:15:48;6.70;99.90
80426;DHT22;69766;51.476;5.704;2023-12-22T04:18:14;6.80;99.90
80426;DHT22;69766;51.476;5.704;2023-12-22T04:20:40;6.90;99.90
80426;DHT22;69766;51.476;5.704;2023-12-22T04:23:06;7.00;99.90
80426;DHT22;69766;51.476;5.704;2023-12-22T04:25:31;7.10;99.90
80426;DHT22;69766;51.476;5.704;2023-12-22T04:27:57;7.10;99.90
80426;DHT22;69766;51.476;5.704;2023-12-22T04:30:23;7.20;99.90
80426;DHT22;69766;51.476;5.704;2023-12-22T04:32:48;7.30;99.90
80426;DHT22;69766;51.476;5.704;2023-12-22T04:35:14;7.40;99.90
80426;DHT22;69766;51.476;5.704;2023-12-22T04:37:43;7.50;99.90
80426;DHT22;69766;51.476;5.704;2023-12-22T04:40:09;7.60;99.90
80426;DHT22;69766;51.476;5.704;2023-12-22T04:42:35;7.70;99.90
80426;DHT22;69766;51.476;5.704;2023-12-22T04:45:00;7.70;99.90
80426;DHT22;69766;51.476;5.704;2023-12-22T04:47:26;7.80;99.90
80426;DHT22;69766;51.476;5.704;2023-12-22T04:49:52;7.70;99.90
80426;DHT22;69766;51.476;5.704;2023-12-22T04:52:18;7.70;99.90
80426;DHT22;69766;51.476;5.704;2023-12-22T04:54:43;7.60;99.90
80426;DHT22;69766;51.476;5.704;2023-12-22T04:57:09;7.70;99.90
80426;DHT22;69766;51.476;5.704;2023-12-22T04:59:35;7.70;99.90
80426;DHT22;69766;51.476;5.704;2023-12-22T05:02:03;7.90;99.90
80426;DHT22;69766;51.476;5.704;2023-12-22T05:04:28;7.80;99.90
80426;DHT22;69766;51.476;5.704;2023-12-22T05:06:54;7.80;99.90
80426;DHT22;69766;51.476;5.704;2023-12-22T05:09:22;7.80;99.90
80426;DHT22;69766;51.476;5.704;2023-12-22T05:11:50;7.70;99.90
80426;DHT22;69766;51.476;5.704;2023-12-22T05:14:16;7.90;99.90
80426;DHT22;69766;51.476;5.704;2023-12-22T05:16:41;7.80;99.90
80426;DHT22;69766;51.476;5.704;2023-12-22T05:19:07;7.80;99.90
80426;DHT22;69766;51.476;5.704;2023-12-22T05:21:33;7.90;99.90
80426;DHT22;69766;51.476;5.704;2023-12-22T05:23:59;7.80;99.90
80426;DHT22;69766;51.476;5.704;2023-12-22T05:26:24;7.80;99.90
80426;DHT22;69766;51.476;5.704;2023-12-22T05:28:53;7.80;99.90
80426;DHT22;69766;51.476;5.704;2023-12-22T05:31:19;7.80;99.90
80426;DHT22;69766;51.476;5.704;2023-12-22T05:33:45;7.90;99.90
80426;DHT22;69766;51.476;5.704;2023-12-22T05:36:10;8.00;99.90
80426;DHT22;69766;51.476;5.704;2023-12-22T05:38:41;8.10;99.90
80426;DHT22;69766;51.476;5.704;2023-12-22T05:41:07;8.00;99.90
80426;DHT22;69766;51.476;5.704;2023-12-22T05:43:33;8.00;99.90
80426;DHT22;69766;51.476;5.704;2023-12-22T05:45:59;8.00;99.90
80426;DHT22;69766;51.476;5.704;2023-12-22T05:48:28;7.60;99.90
80426;DHT22;69766;51.476;5.704;2023-12-22T05:50:56;7.30;99.90
80426;DHT22;69766;51.476;5.704;2023-12-22T05:53:22;7.30;99.90
80426;DHT22;69766;51.476;5.704;2023-12-22T05:55:51;7.20;99.90
80426;DHT22;69766;51.476;5.704;2023-12-22T05:58:16;7.30;99.90
80426;DHT22;69766;51.476;5.704;2023-12-22T06:00:42;7.20;99.90
80426;DHT22;69766;51.476;5.704;2023-12-22T06:03:08;7.30;99.90
80426;DHT22;69766;51.476;5.704;2023-12-22T06:05:34;7.40;99.90
80426;DHT22;69766;51.476;5.704;2023-12-22T06:08:02;7.50;99.90
80426;DHT22;69766;51.476;5.704;2023-12-22T06:10:30;7.50;99.90
80426;DHT22;69766;51.476;5.704;2023-12-22T06:12:55;7.60;99.90
80426;DHT22;69766;51.476;5.704;2023-12-22T06:15:23;7.60;99.90
80426;DHT22;69766;51.476;5.704;2023-12-22T06:17:49;7.80;99.90
80426;DHT22;69766;51.476;5.704;2023-12-22T06:20:15;7.80;99.90
80426;DHT22;69766;51.476;5.704;2023-12-22T06:22:41;7.90;99.90
80426;DHT22;69766;51.476;5.704;2023-12-22T06:25:10;7.70;99.90
80426;DHT22;69766;51.476;5.704;2023-12-22T06:27:36;7.50;99.90
80426;DHT22;69766;51.476;5.704;2023-12-22T06:30:04;7.40;99.90
80426;DHT22;69766;51.476;5.704;2023-12-22T06:32:30;7.40;99.90
80426;DHT22;69766;51.476;5.704;2023-12-22T06:34:56;7.40;99.90
80426;DHT22;69766;51.476;5.704;2023-12-22T06:37:21;7.30;99.90
80426;DHT22;69766;51.476;5.704;2023-12-22T06:39:47;7.20;99.90
80426;DHT22;69766;51.476;5.704;2023-12-22T06:42:13;7.30;99.90
80426;DHT22;69766;51.476;5.704;2023-12-22T06:44:41;7.30;99.90
80426;DHT22;69766;51.476;5.704;2023-12-22T06:47:08;7.30;99.90
80426;DHT22;69766;51.476;5.704;2023-12-22T06:49:33;7.30;99.90
80426;DHT22;69766;51.476;5.704;2023-12-22T06:51:59;7.30;99.90
80426;DHT22;69766;51.476;5.704;2023-12-22T06:54:25;7.50;99.90
80426;DHT22;69766;51.476;5.704;2023-12-22T06:56:51;7.60;99.90
80426;DHT22;69766;51.476;5.704;2023-12-22T06:59:17;7.70;99.90
80426;DHT22;69766;51.476;5.704;2023-12-22T07:01:42;7.70;99.90
80426;DHT22;69766;51.476;5.704;2023-12-22T07:04:08;7.70;99.90
80426;DHT22;69766;51.476;5.704;2023-12-22T07:06:34;7.80;99.90
80426;DHT22;69766;51.476;5.704;2023-12-22T07:11:49;7.90;99.90
80426;DHT22;69766;51.476;5.704;2023-12-22T07:14:21;7.80;99.90
80426;DHT22;69766;51.476;5.704;2023-12-22T07:16:47;7.90;99.90
80426;DHT22;69766;51.476;5.704;2023-12-22T07:19:13;7.80;99.90
80426;DHT22;69766;51.476;5.704;2023-12-22T07:21:42;7.90;99.90
80426;DHT22;69766;51.476;5.704;2023-12-22T07:24:07;7.90;99.90
80426;DHT22;69766;51.476;5.704;2023-12-22T07:26:33;8.10;99.90
80426;DHT22;69766;51.476;5.704;2023-12-22T07:29:03;8.10;99.90
80426;DHT22;69766;51.476;5.704;2023-12-22T07:31:28;8.20;99.90
80426;DHT22;69766;51.476;5.704;2023-12-22T07:33:54;8.20;99.90
80426;DHT22;69766;51.476;5.704;2023-12-22T07:36:20;8.20;99.90
80426;DHT22;69766;51.476;5.704;2023-12-22T07:38:46;8.20;99.90
80426;DHT22;69766;51.476;5.704;2023-12-22T07:41:12;8.20;99.90
80426;DHT22;69766;51.476;5.704;2023-12-22T07:43:38;8.20;99.90
80426;DHT22;69766;51.476;5.704;2023-12-22T07:46:04;8.30;99.90
80426;DHT22;69766;51.476;5.704;2023-12-22T07:48:30;8.30;99.90
80426;DHT22;69766;51.476;5.704;2023-12-22T07:50:58;8.30;99.90
80426;DHT22;69766;51.476;5.704;2023-12-22T07:53:24;8.40;99.90
80426;DHT22;69766;51.476;5.704;2023-12-22T07:55:50;8.50;99.90
80426;DHT22;69766;51.476;5.704;2023-12-22T07:58:16;8.30;99.90
80426;DHT22;69766;51.476;5.704;2023-12-22T08:00:45;8.40;99.90
80426;DHT22;69766;51.476;5.704;2023-12-22T08:03:11;8.40;99.90
80426;DHT22;69766;51.476;5.704;2023-12-22T08:05:37;8.40;99.90
80426;DHT22;69766;51.476;5.704;2023-12-22T08:08:03;8.40;99.90
80426;DHT22;69766;51.476;5.704;2023-12-22T08:10:29;8.50;99.90
80426;DHT22;69766;51.476;5.704;2023-12-22T08:12:55;8.60;99.90
80426;DHT22;69766;51.476;5.704;2023-12-22T08:15:21;8.50;99.90
80426;DHT22;69766;51.476;5.704;2023-12-22T08:17:50;8.60;99.90
80426;DHT22;69766;51.476;5.704;2023-12-22T08:20:23;8.40;99.90
80426;DHT22;69766;51.476;5.704;2023-12-22T08:22:55;8.70;99.90
80426;DHT22;69766;51.476;5.704;2023-12-22T08:25:21;8.70;99.90
80426;DHT22;69766;51.476;5.704;2023-12-22T08:27:47;8.70;99.90
80426;DHT22;69766;51.476;5.704;2023-12-22T08:30:13;8.70;99.90
80426;DHT22;69766;51.476;5.704;2023-12-22T08:32:41;8.70;99.90
80426;DHT22;69766;51.476;5.704;2023-12-22T08:35:13;8.80;99.90
80426;DHT22;69766;51.476;5.704;2023-12-22T08:37:39;8.80;99.90
80426;DHT22;69766;51.476;5.704;2023-12-22T08:40:05;8.80;99.90
80426;DHT22;69766;51.476;5.704;2023-12-22T08:42:31;8.90;99.90
80426;DHT22;69766;51.476;5.704;2023-12-22T08:44:58;8.90;99.90
80426;DHT22;69766;51.476;5.704;2023-12-22T08:47:24;8.90;99.90
80426;DHT22;69766;51.476;5.704;2023-12-22T08:49:50;9.00;99.90
80426;DHT22;69766;51.476;5.704;2023-12-22T08:52:16;8.90;99.90
80426;DHT22;69766;51.476;5.704;2023-12-22T08:54:42;9.00;99.90
80426;DHT22;69766;51.476;5.704;2023-12-22T08:57:08;9.00;99.90
80426;DHT22;69766;51.476;5.704;2023-12-22T08:59:42;9.00;99.90
80426;DHT22;69766;51.476;5.704;2023-12-22T09:02:08;9.00;99.90
80426;DHT22;69766;51.476;5.704;2023-12-22T09:04:34;9.00;99.90
80426;DHT22;69766;51.476;5.704;2023-12-22T09:07:01;9.00;99.90
80426;DHT22;69766;51.476;5.704;2023-12-22T09:09:27;9.00;99.90
80426;DHT22;69766;51.476;5.704;2023-12-22T09:11:53;9.00;99.90
80426;DHT22;69766;51.476;5.704;2023-12-22T09:14:21;9.10;99.90
80426;DHT22;69766;51.476;5.704;2023-12-22T09:16:50;9.00;99.90
80426;DHT22;69766;51.476;5.704;2023-12-22T09:19:16;9.10;99.90
80426;DHT22;69766;51.476;5.704;2023-12-22T09:21:42;9.10;99.90
80426;DHT22;69766;51.476;5.704;2023-12-22T09:24:09;9.10;99.90
80426;DHT22;69766;51.476;5.704;2023-12-22T09:26:37;9.10;99.90
80426;DHT22;69766;51.476;5.704;2023-12-22T09:29:03;9.10;99.90
80426;DHT22;69766;51.476;5.704;2023-12-22T09:31:29;9.20;99.90
80426;DHT22;69766;51.476;5.704;2023-12-22T09:34:00;9.10;99.90
80426;DHT22;69766;51.476;5.704;2023-12-22T09:36:26;9.30;99.90
80426;DHT22;69766;51.476;5.704;2023-12-22T09:38:54;9.30;99.90
80426;DHT22;69766;51.476;5.704;2023-12-22T09:41:20;9.20;99.90
80426;DHT22;69766;51.476;5.704;2023-12-22T09:43:49;9.30;99.90
80426;DHT22;69766;51.476;5.704;2023-12-22T09:46:17;9.30;99.90
80426;DHT22;69766;51.476;5.704;2023-12-22T09:48:45;9.30;99.90
80426;DHT22;69766;51.476;5.704;2023-12-22T09:51:14;9.30;99.90
80426;DHT22;69766;51.476;5.704;2023-12-22T09:53:41;9.30;99.90
80426;DHT22;69766;51.476;5.704;2023-12-22T09:56:07;9.40;99.90
80426;DHT22;69766;51.476;5.704;2023-12-22T09:58:33;9.50;99.90
80426;DHT22;69766;51.476;5.704;2023-12-22T10:01:02;9.50;99.90
80426;DHT22;69766;51.476;5.704;2023-12-22T10:03:33;9.50;99.90
80426;DHT22;69766;51.476;5.704;2023-12-22T10:06:00;9.70;99.90
80426;DHT22;69766;51.476;5.704;2023-12-22T10:08:27;9.70;99.90
80426;DHT22;69766;51.476;5.704;2023-12-22T10:10:54;9.80;99.90
80426;DHT22;69766;51.476;5.704;2023-12-22T10:13:26;9.80;99.90
80426;DHT22;69766;51.476;5.704;2023-12-22T10:15:56;9.80;99.90
80426;DHT22;69766;51.476;5.704;2023-12-22T10:18:24;9.80;99.90
80426;DHT22;69766;51.476;5.704;2023-12-22T10:20:50;9.90;99.90
80426;DHT22;69766;51.476;5.704;2023-12-22T10:23:18;9.90;99.90
80426;DHT22;69766;51.476;5.704;2023-12-22T10:25:45;10.00;99.90
80426;DHT22;69766;51.476;5.704;2023-12-22T10:28:12;9.90;99.90
80426;DHT22;69766;51.476;5.704;2023-12-22T10:30:43;10.00;99.90
80426;DHT22;69766;51.476;5.704;2023-12-22T10:33:12;10.00;99.90
80426;DHT22;69766;51.476;5.704;2023-12-22T10:35:38;10.00;99.90
80426;DHT22;69766;51.476;5.704;2023-12-22T10:38:06;10.00;99.90
80426;DHT22;69766;51.476;5.704;2023-12-22T10:40:32;10.10;99.90
80426;DHT22;69766;51.476;5.704;2023-12-22T10:42:59;10.20;99.90
80426;DHT22;69766;51.476;5.704;2023-12-22T10:45:25;10.20;99.90
80426;DHT22;69766;51.476;5.704;2023-12-22T10:47:51;10.20;99.90
80426;DHT22;69766;51.476;5.704;2023-12-22T10:50:19;10.10;99.90
80426;DHT22;69766;51.476;5.704;2023-12-22T10:52:52;10.10;99.90
80426;DHT22;69766;51.476;5.704;2023-12-22T10:55:17;10.10;99.90
80426;DHT22;69766;51.476;5.704;2023-12-22T10:57:46;10.10;99.90
80426;DHT22;69766;51.476;5.704;2023-12-22T11:00:19;10.20;99.90
80426;DHT22;69766;51.476;5.704;2023-12-22T11:02:48;10.20;99.90
80426;DHT22;69766;51.476;5.704;2023-12-22T11:05:15;10.20;99.90
80426;DHT22;69766;51.476;5.704;2023-12-22T11:07:49;10.10;99.90
80426;DHT22;69766;51.476;5.704;2023-12-22T11:10:18;10.20;99.90
80426;DHT22;69766;51.476;5.704;2023-12-22T11:12:45;10.20;99.90
80426;DHT22;69766;51.476;5.704;2023-12-22T11:15:16;10.30;99.90
80426;DHT22;69766;51.476;5.704;2023-12-22T11:17:52;10.30;99.90
80426;DHT22;69766;51.476;5.704;2023-12-22T11:20:25;10.30;99.90
80426;DHT22;69766;51.476;5.704;2023-12-22T11:22:52;10.20;99.90
80426;DHT22;69766;51.476;5.704;2023-12-22T11:25:19;10.30;99.90
80426;DHT22;69766;51.476;5.704;2023-12-22T11:27:46;10.20;99.90
80426;DHT22;69766;51.476;5.704;2023-12-22T11:30:14;10.30;99.90
80426;DHT22;69766;51.476;5.704;2023-12-22T11:32:40;10.30;99.90
80426;DHT22;69766;51.476;5.704;2023-12-22T11:35:07;10.30;99.90
80426;DHT22;69766;51.476;5.704;2023-12-22T11:37:37;10.30;99.90
80426;DHT22;69766;51.476;5.704;2023-12-22T11:40:04;10.30;99.90
80426;DHT22;69766;51.476;5.704;2023-12-22T11:42:33;10.40;99.90
80426;DHT22;69766;51.476;5.704;2023-12-22T11:45:02;10.50;99.90
80426;DHT22;69766;51.476;5.704;2023-12-22T11:47:29;10.60;99.90
80426;DHT22;69766;51.476;5.704;2023-12-22T11:49:55;10.60;99.90
80426;DHT22;69766;51.476;5.704;2023-12-22T11:52:26;10.50;99.90
80426;DHT22;69766;51.476;5.704;2023-12-22T11:54:54;10.50;99.90
80426;DHT22;69766;51.476;5.704;2023-12-22T11:57:30;10.50;99.90
80426;DHT22;69766;51.476;5.704;2023-12-22T12:02:42;10.30;99.90
80426;DHT22;69766;51.476;5.704;2023-12-22T12:05:09;10.30;99.90
80426;DHT22;69766;51.476;5.704;2023-12-22T12:07:44;10.30;99.90
80426;DHT22;69766;51.476;5.704;2023-12-22T12:13:12;10.30;99.90
80426;DHT22;69766;51.476;5.704;2023-12-22T12:15:41;10.40;99.90
80426;DHT22;69766;51.476;5.704;2023-12-22T12:18:08;10.40;99.90
80426;DHT22;69766;51.476;5.704;2023-12-22T12:20:35;10.40;99.90
80426;DHT22;69766;51.476;5.704;2023-12-22T12:23:01;10.20;99.90
80426;DHT22;69766;51.476;5.704;2023-12-22T12:25:32;10.10;99.90
80426;DHT22;69766;51.476;5.704;2023-12-22T12:28:10;10.00;99.90
80426;DHT22;69766;51.476;5.704;2023-12-22T12:30:38;10.00;99.90
80426;DHT22;69766;51.476;5.704;2023-12-22T12:33:10;10.00;99.90
80426;DHT22;69766;51.476;5.704;2023-12-22T12:35:38;10.00;99.90
80426;DHT22;69766;51.476;5.704;2023-12-22T12:38:04;10.10;99.90
80426;DHT22;69766;51.476;5.704;2023-12-22T12:40:31;10.20;99.90
80426;DHT22;69766;51.476;5.704;2023-12-22T12:43:00;10.20;99.90
80426;DHT22;69766;51.476;5.704;2023-12-22T12:45:27;10.30;99.90
80426;DHT22;69766;51.476;5.704;2023-12-22T12:48:00;10.40;99.90
80426;DHT22;69766;51.476;5.704;2023-12-22T12:50:27;10.40;99.90
80426;DHT22;69766;51.476;5.704;2023-12-22T12:53:01;10.40;99.90
80426;DHT22;69766;51.476;5.704;2023-12-22T12:55:27;10.40;99.90
80426;DHT22;69766;51.476;5.704;2023-12-22T12:57:56;10.40;99.90
80426;DHT22;69766;51.476;5.704;2023-12-22T13:00:25;10.50;99.90
80426;DHT22;69766;51.476;5.704;2023-12-22T13:02:56;10.50;99.90
80426;DHT22;69766;51.476;5.704;2023-12-22T13:05:24;10.50;99.90
80426;DHT22;69766;51.476;5.704;2023-12-22T13:08:05;10.50;99.90
80426;DHT22;69766;51.476;5.704;2023-12-22T13:10:31;10.60;99.90
80426;DHT22;69766;51.476;5.704;2023-12-22T13:12:57;10.60;99.90
80426;DHT22;69766;51.476;5.704;2023-12-22T13:15:23;10.60;99.90
80426;DHT22;69766;51.476;5.704;2023-12-22T13:17:49;10.60;99.90
80426;DHT22;69766;51.476;5.704;2023-12-22T13:20:15;10.60;99.90
80426;DHT22;69766;51.476;5.704;2023-12-22T13:22:41;10.60;99.90
80426;DHT22;69766;51.476;5.704;2023-12-22T13:25:07;10.60;99.90
80426;DHT22;69766;51.476;5.704;2023-12-22T13:27:47;10.60;99.90
80426;DHT22;69766;51.476;5.704;2023-12-22T13:30:35;10.60;99.90
80426;DHT22;69766;51.476;5.704;2023-12-22T13:33:08;10.60;99.90
80426;DHT22;69766;51.476;5.704;2023-12-22T13:35:34;10.70;99.90
80426;DHT22;69766;51.476;5.704;2023-12-22T13:38:07;10.50;99.90
80426;DHT22;69766;51.476;5.704;2023-12-22T13:40:33;10.60;99.90
80426;DHT22;69766;51.476;5.704;2023-12-22T13:43:00;10.60;99.90
80426;DHT22;69766;51.476;5.704;2023-12-22T13:45:31;10.60;99.90
80426;DHT22;69766;51.476;5.704;2023-12-22T13:47:57;10.60;99.90
80426;DHT22;69766;51.476;5.704;2023-12-22T13:50:25;10.60;99.90
80426;DHT22;69766;51.476;5.704;2023-12-22T13:52:51;10.60;99.90
80426;DHT22;69766;51.476;5.704;2023-12-22T13:55:19;10.60;99.90
80426;DHT22;69766;51.476;5.704;2023-12-22T13:57:50;10.50;99.90
80426;DHT22;69766;51.476;5.704;2023-12-22T14:00:24;10.30;99.90
80426;DHT22;69766;51.476;5.704;2023-12-22T14:02:50;10.30;99.90
80426;DHT22;69766;51.476;5.704;2023-12-22T14:05:17;10.20;99.90
80426;DHT22;69766;51.476;5.704;2023-12-22T14:07:46;10.20;99.90
80426;DHT22;69766;51.476;5.704;2023-12-22T14:10:13;10.20;99.90
80426;DHT22;69766;51.476;5.704;2023-12-22T14:12:42;10.10;99.90
80426;DHT22;69766;51.476;5.704;2023-12-22T14:15:11;10.00;99.90
80426;DHT22;69766;51.476;5.704;2023-12-22T14:17:38;9.80;99.90
80426;DHT22;69766;51.476;5.704;2023-12-22T14:20:05;9.80;99.90
80426;DHT22;69766;51.476;5.704;2023-12-22T14:22:33;9.80;99.90
80426;DHT22;69766;51.476;5.704;2023-12-22T14:24:59;9.80;99.90
80426;DHT22;69766;51.476;5.704;2023-12-22T14:27:25;9.90;99.90
80426;DHT22;69766;51.476;5.704;2023-12-22T14:29:53;9.90;99.90
80426;DHT22;69766;51.476;5.704;2023-12-22T14:32:19;9.90;99.90
80426;DHT22;69766;51.476;5.704;2023-12-22T14:34:48;9.90;99.90
80426;DHT22;69766;51.476;5.704;2023-12-22T14:37:16;9.80;99.90
80426;DHT22;69766;51.476;5.704;2023-12-22T14:39:42;9.80;99.90
80426;DHT22;69766;51.476;5.704;2023-12-22T14:42:08;9.80;99.90
80426;DHT22;69766;51.476;5.704;2023-12-22T14:44:35;9.80;99.90
80426;DHT22;69766;51.476;5.704;2023-12-22T14:47:00;9.90;99.90
80426;DHT22;69766;51.476;5.704;2023-12-22T14:49:26;9.90;99.90
80426;DHT22;69766;51.476;5.704;2023-12-22T14:51:52;9.90;99.90
80426;DHT22;69766;51.476;5.704;2023-12-22T14:54:19;9.90;99.90
80426;DHT22;69766;51.476;5.704;2023-12-22T14:56:46;10.00;99.90
80426;DHT22;69766;51.476;5.704;2023-12-22T14:59:14;10.00;99.90
80426;DHT22;69766;51.476;5.704;2023-12-22T15:01:40;10.10;99.90
80426;DHT22;69766;51.476;5.704;2023-12-22T15:04:09;10.20;99.90
80426;DHT22;69766;51.476;5.704;2023-12-22T15:06:38;10.10;99.90
80426;DHT22;69766;51.476;5.704;2023-12-22T15:09:06;10.10;99.90
80426;DHT22;69766;51.476;5.704;2023-12-22T15:11:31;10.20;99.90
80426;DHT22;69766;51.476;5.704;2023-12-22T15:13:57;10.10;99.90
80426;DHT22;69766;51.476;5.704;2023-12-22T15:16:23;10.10;99.90
80426;DHT22;69766;51.476;5.704;2023-12-22T15:18:48;10.20;99.90
80426;DHT22;69766;51.476;5.704;2023-12-22T15:21:21;10.20;99.90
80426;DHT22;69766;51.476;5.704;2023-12-22T15:23:47;10.20;99.90
80426;DHT22;69766;51.476;5.704;2023-12-22T15:26:25;10.20;99.90
80426;DHT22;69766;51.476;5.704;2023-12-22T15:28:54;10.20;99.90
80426;DHT22;69766;51.476;5.704;2023-12-22T15:31:19;10.20;99.90
80426;DHT22;69766;51.476;5.704;2023-12-22T15:33:45;10.20;99.90
80426;DHT22;69766;51.476;5.704;2023-12-22T15:36:16;10.20;99.90
80426;DHT22;69766;51.476;5.704;2023-12-22T15:38:45;10.30;99.90
80426;DHT22;69766;51.476;5.704;2023-12-22T15:41:12;10.20;99.90
80426;DHT22;69766;51.476;5.704;2023-12-22T15:43:41;10.30;99.90
80426;DHT22;69766;51.476;5.704;2023-12-22T15:46:07;10.30;99.90
80426;DHT22;69766;51.476;5.704;2023-12-22T15:48:34;10.30;99.90
80426;DHT22;69766;51.476;5.704;2023-12-22T15:51:12;10.30;99.90
80426;DHT22;69766;51.476;5.704;2023-12-22T15:53:39;10.40;99.90